METAR
Output Produced by Metar
found at http://aviationweather.gov/adds/metars/
 

Data at: 1709 UTC 20 Sep 2020

METAR for:WIII (Jakarta Intl, --, ID)
Text:WIII 201700Z 23003KT 3000 HZ FEW020 23/22 Q1011 NOSIG
Temperature: 23.0°C ( 73°F)
Dewpoint: 22.0°C ( 72°F) [RH = 94%]
Pressure (altimeter):29.85 inches Hg (1011.0 mb)
Winds:from the SW (230 degrees) at 3 MPH (3 knots; 1.5 m/s)
Visibility: 1.86 sm ( 2.99 km)
Ceiling:at least 12,000 feet AGL
Clouds: few clouds at 2000 feet AGL
Weather:HZ (haze)

PELAYANAN